Time,TemperatureF,DewpointF,PressureIn,WindDirection,WindDirectionDegrees,WindSpeedMPH,WindSpeedGustMPH,Humidity,HourlyPrecipIn,Conditions,Clouds,dailyrainin,SoftwareType,DateUTC
2013-05-25 00:01:00,59.0,38.2,30.22,East,90,0.0,3.5,46,0.00,OVC,FEW,0.00,WeatherDisplay:10.37,2013-05-25 05:01:00,
2013-05-25 00:06:00,59.0,38.2,30.22,SE,135,0.0,2.3,46,0.00,OVC,FEW,0.00,WeatherDisplay:10.37,2013-05-25 05:06:00,
2013-05-25 00:12:00,59.0,37.7,30.22,East,90,0.0,1.2,45,0.00,OVC,FEW,0.00,WeatherDisplay:10.37,2013-05-25 05:12:00,
2013-05-25 00:17:00,58.8,38.6,30.23,South,180,0.0,1.2,47,0.00,OVC,FEW,0.00,WeatherDisplay:10.37,2013-05-25 05:17:00,
2013-05-25 00:23:00,58.8,38.6,30.22,South,180,0.0,1.2,47,0.00,OVC,FEW,0.00,WeatherDisplay:10.37,2013-05-25 05:23:00,
2013-05-25 00:29:00,58.8,38.6,30.23,SE,135,0.0,1.2,47,0.00,OVC,FEW,0.00,WeatherDisplay:10.37,2013-05-25 05:29:00,
2013-05-25 00:34:00,58.6,37.9,30.24,North,0,0.0,0.0,46,0.00,OVC,FEW,0.00,WeatherDisplay:10.37,2013-05-25 05:34:00,
2013-05-25 00:40:00,58.8,38.6,30.24,South,180,0.0,1.2,47,0.00,OVC,FEW,0.00,WeatherDisplay:10.37,2013-05-25 05:40:00,
2013-05-25 00:45:00,58.6,38.5,30.24,East,90,0.0,0.0,47,0.00,OVC,FEW,0.00,WeatherDisplay:10.37,2013-05-25 05:45:00,
2013-05-25 00:51:00,58.6,39.0,30.23,East,90,0.0,1.2,48,0.00,OVC,FEW,0.00,WeatherDisplay:10.37,2013-05-25 05:51:00,
2013-05-25 00:57:00,58.8,39.2,30.22,South,180,0.7,2.3,48,0.00,OVC,FEW,0.00,WeatherDisplay:10.37,2013-05-25 05:57:00,
2013-05-25 01:02:00,58.8,38.6,30.21,South,180,0.7,2.3,47,0.00,OVC,FEW,0.00,WeatherDisplay:10.37,2013-05-25 06:02:00,
2013-05-25 01:08:00,58.8,38.6,30.21,SE,135,1.6,3.5,47,0.00,OVC,FEW,0.00,WeatherDisplay:10.37,2013-05-25 06:08:00,
2013-05-25 01:13:00,58.8,39.7,30.21,SE,135,0.7,2.3,49,0.00,OVC,FEW,0.00,WeatherDisplay:10.37,2013-05-25 06:13:00,
2013-05-25 01:19:00,58.5,40.9,30.21,SE,135,0.7,3.5,52,0.00,OVC,FEW,0.00,WeatherDisplay:10.37,2013-05-25 06:19:00,
2013-05-25 01:25:00,57.7,41.7,30.20,SE,135,0.7,3.5,55,0.00,OVC,FEW,0.00,WeatherDisplay:10.37,2013-05-25 06:25:00,
2013-05-25 01:30:00,57.2,41.6,30.21,North,0,2.2,3.5,56,0.00,OVC,FEW,0.00,WeatherDisplay:10.37,2013-05-25 06:30:00,
2013-05-25 01:36:00,56.7,42.0,30.20,SE,135,1.6,3.5,58,0.00,OVC,FEW,0.00,WeatherDisplay:10.37,2013-05-25 06:36:00,
2013-05-25 01:41:00,56.5,41.9,30.19,SE,135,2.2,4.6,58,0.00,OVC,FEW,0.00,WeatherDisplay:10.37,2013-05-25 06:41:00,
2013-05-25 01:47:00,56.3,41.7,30.17,East,90,3.1,5.4,58,0.00,OVC,FEW,0.00,WeatherDisplay:10.37,2013-05-25 06:47:00,
2013-05-25 01:53:00,56.1,41.5,30.18,East,90,1.6,4.6,58,0.00,OVC,FEW,0.00,WeatherDisplay:10.37,2013-05-25 06:53:00,
2013-05-25 01:58:00,56.1,40.6,30.22,South,180,0.7,3.5,56,0.00,OVC,FEW,0.00,WeatherDisplay:10.37,2013-05-25 06:58:00,
2013-05-25 02:04:00,56.1,40.6,30.22,SSW,202,0.0,3.5,56,0.00,OVC,FEW,0.00,WeatherDisplay:10.37,2013-05-25 07:04:00,
2013-05-25 02:09:00,55.9,41.4,30.23,SE,135,0.0,1.6,58,0.00,OVC,FEW,0.00,WeatherDisplay:10.37,2013-05-25 07:09:00,
2013-05-25 02:15:00,55.4,42.6,30.21,SE,135,0.0,1.6,62,0.01,RA,FEW,0.01,WeatherDisplay:10.37,2013-05-25 07:15:00,
2013-05-25 02:21:00,55.4,42.6,30.21,SE,135,0.0,1.2,62,0.01,RA,FEW,0.01,WeatherDisplay:10.37,2013-05-25 07:21:00,
2013-05-25 02:26:00,54.3,44.0,30.21,SE,135,0.0,1.6,68,0.01,OVC,FEW,0.01,WeatherDisplay:10.37,2013-05-25 07:26:00,
2013-05-25 02:32:00,54.1,43.4,30.21,SE,135,0.0,1.2,67,0.01,OVC,FEW,0.01,WeatherDisplay:10.37,2013-05-25 07:32:00,
2013-05-25 02:37:00,54.1,43.8,30.24,North,0,0.7,3.5,68,0.01,OVC,FEW,0.01,WeatherDisplay:10.37,2013-05-25 07:37:00,
2013-05-25 02:43:00,54.1,44.2,30.24,NE,45,0.0,1.2,69,0.01,OVC,FEW,0.01,WeatherDisplay:10.37,2013-05-25 07:43:00,
2013-05-25 02:49:00,54.0,44.4,30.24,North,0,0.0,1.2,70,0.01,OVC,FEW,0.01,WeatherDisplay:10.37,2013-05-25 07:49:00,
2013-05-25 02:54:00,53.6,45.9,30.24,SW,225,0.7,1.6,75,0.01,OVC,FEW,0.01,WeatherDisplay:10.37,2013-05-25 07:54:00,
2013-05-25 03:00:00,53.1,45.7,30.24,North,0,0.0,1.2,76,0.01,OVC,FEW,0.01,WeatherDisplay:10.37,2013-05-25 08:00:00,
2013-05-25 03:05:00,52.9,45.9,30.25,East,90,0.0,0.0,77,0.01,OVC,FEW,0.01,WeatherDisplay:10.37,2013-05-25 08:05:00,
2013-05-25 03:11:00,52.7,45.7,30.25,East,90,0.0,0.0,77,0.01,OVC,FEW,0.01,WeatherDisplay:10.37,2013-05-25 08:11:00,
2013-05-25 03:17:00,52.5,45.9,30.25,East,90,0.0,0.0,78,0.00,OVC,FEW,0.01,WeatherDisplay:10.37,2013-05-25 08:17:00,
2013-05-25 03:22:00,52.5,45.9,30.25,East,90,0.0,0.0,78,0.00,OVC,FEW,0.01,WeatherDisplay:10.37,2013-05-25 08:22:00,
2013-05-25 03:28:00,52.2,46.5,30.24,NE,45,0.0,1.2,81,0.00,OVC,FEW,0.01,WeatherDisplay:10.37,2013-05-25 08:28:00,
2013-05-25 03:33:00,52.2,46.5,30.25,East,90,0.0,0.0,81,0.01,RA,FEW,0.02,WeatherDisplay:10.37,2013-05-25 08:33:00,
2013-05-25 03:39:00,52.0,46.3,30.24,South,180,0.0,0.0,81,0.01,RA,FEW,0.02,WeatherDisplay:10.37,2013-05-25 08:39:00,
2013-05-25 03:45:00,52.0,46.3,30.24,South,180,0.0,0.0,81,0.01,OVC,FEW,0.02,WeatherDisplay:10.37,2013-05-25 08:45:00,
2013-05-25 03:50:00,51.8,46.2,30.25,SW,225,0.0,0.0,81,0.01,OVC,FEW,0.02,WeatherDisplay:10.37,2013-05-25 08:50:00,
2013-05-25 03:56:00,51.8,46.2,30.24,East,90,0.0,0.0,81,0.01,OVC,FEW,0.02,WeatherDisplay:10.37,2013-05-25 08:56:00,
2013-05-25 04:01:00,51.8,45.8,30.24,SE,135,0.0,0.0,80,0.01,OVC,FEW,0.02,WeatherDisplay:10.37,2013-05-25 09:01:00,
2013-05-25 04:07:00,52.0,46.0,30.24,SE,135,0.0,0.0,80,0.01,OVC,FEW,0.02,WeatherDisplay:10.37,2013-05-25 09:07:00,
2013-05-25 04:13:00,52.0,45.7,30.25,SE,135,0.0,0.0,79,0.01,OVC,FEW,0.02,WeatherDisplay:10.37,2013-05-25 09:13:00,
2013-05-25 04:18:00,52.0,45.0,30.25,South,180,0.0,0.0,77,0.01,OVC,FEW,0.02,WeatherDisplay:10.37,2013-05-25 09:18:00,
2013-05-25 04:24:00,52.0,45.3,30.25,South,180,0.0,0.0,78,0.01,OVC,FEW,0.02,WeatherDisplay:10.37,2013-05-25 09:24:00,
2013-05-25 04:29:00,52.2,45.2,30.25,East,90,0.0,0.0,77,0.01,OVC,FEW,0.02,WeatherDisplay:10.37,2013-05-25 09:29:00,
2013-05-25 04:35:00,52.3,45.0,30.25,East,90,0.0,0.0,76,0.00,OVC,FEW,0.02,WeatherDisplay:10.37,2013-05-25 09:35:00,
2013-05-25 04:41:00,52.2,44.8,30.25,East,90,0.0,0.0,76,0.00,OVC,FEW,0.02,WeatherDisplay:10.37,2013-05-25 09:41:00,
2013-05-25 04:46:00,52.2,44.8,30.25,ENE,68,0.0,0.0,76,0.00,OVC,FEW,0.02,WeatherDisplay:10.37,2013-05-25 09:46:00,
2013-05-25 04:52:00,52.0,44.3,30.25,NE,45,0.0,0.0,75,0.00,OVC,FEW,0.02,WeatherDisplay:10.37,2013-05-25 09:52:00,
2013-05-25 04:57:00,52.0,44.3,30.26,SE,135,0.0,1.2,75,0.00,OVC,FEW,0.02,WeatherDisplay:10.37,2013-05-25 09:57:00,
2013-05-25 05:03:00,51.8,44.1,30.26,SE,135,0.0,0.0,75,0.00,OVC,FEW,0.02,WeatherDisplay:10.37,2013-05-25 10:03:00,
2013-05-25 05:09:00,51.6,45.0,30.25,SE,135,0.0,0.0,78,0.00,OVC,FEW,0.02,WeatherDisplay:10.37,2013-05-25 10:09:00,
2013-05-25 05:14:00,51.6,45.0,30.24,SE,135,0.0,2.3,78,0.00,OVC,FEW,0.02,WeatherDisplay:10.37,2013-05-25 10:14:00,
2013-05-25 05:20:00,51.8,44.5,30.24,East,90,0.0,2.3,76,0.00,OVC,FEW,0.02,WeatherDisplay:10.37,2013-05-25 10:20:00,
2013-05-25 05:25:00,52.0,44.3,30.25,SE,135,0.0,1.6,75,0.00,OVC,FEW,0.02,WeatherDisplay:10.37,2013-05-25 10:25:00,
2013-05-25 05:31:00,52.0,44.3,30.24,East,90,0.0,0.0,75,0.00,OVC,FEW,0.02,WeatherDisplay:10.37,2013-05-25 10:31:00,
2013-05-25 05:37:00,51.8,44.1,30.25,SE,135,0.7,2.3,75,0.00,OVC,FEW,0.02,WeatherDisplay:10.37,2013-05-25 10:37:00,
2013-05-25 05:42:00,51.4,44.1,30.25,North,0,0.0,1.2,76,0.00,OVC,FEW,0.02,WeatherDisplay:10.37,2013-05-25 10:42:00,
2013-05-25 05:48:00,51.3,44.0,30.26,East,90,0.0,1.6,76,0.00,OVC,FEW,0.02,WeatherDisplay:10.37,2013-05-25 10:48:00,
2013-05-25 05:53:00,51.1,43.8,30.26,South,180,0.0,3.5,76,0.00,OVC,FEW,0.02,WeatherDisplay:10.37,2013-05-25 10:53:00,
2013-05-25 05:59:00,50.5,44.3,30.26,East,90,0.0,1.2,79,0.00,OVC,FEW,0.02,WeatherDisplay:10.37,2013-05-25 10:59:00,
2013-05-25 06:05:00,50.2,44.2,30.26,East,90,0.0,1.2,80,0.00,OVC,FEW,0.02,WeatherDisplay:10.37,2013-05-25 11:05:00,
2013-05-25 06:10:00,50.0,44.4,30.27,NE,45,0.7,2.3,81,0.00,OVC,FEW,0.02,WeatherDisplay:10.37,2013-05-25 11:10:00,
2013-05-25 06:16:00,49.8,44.2,30.27,NE,45,0.7,3.5,81,0.00,OVC,FEW,0.02,WeatherDisplay:10.37,2013-05-25 11:16:00,
2013-05-25 06:21:00,49.8,44.2,30.26,SE,135,0.7,3.5,81,0.00,OVC,FEW,0.02,WeatherDisplay:10.37,2013-05-25 11:21:00,
2013-05-25 06:27:00,49.5,43.9,30.26,NE,45,0.0,2.3,81,0.00,OVC,FEW,0.02,WeatherDisplay:10.37,2013-05-25 11:27:00,
2013-05-25 06:33:00,49.1,43.5,30.27,SW,225,0.0,1.2,81,0.00,OVC,FEW,0.02,WeatherDisplay:10.37,2013-05-25 11:33:00,
2013-05-25 06:38:00,48.9,43.0,30.27,NW,315,0.7,2.3,80,0.00,OVC,FEW,0.02,WeatherDisplay:10.37,2013-05-25 11:38:00,
2013-05-25 06:44:00,49.1,43.2,30.27,East,90,0.0,1.2,80,0.00,OVC,FEW,0.02,WeatherDisplay:10.37,2013-05-25 11:44:00,
2013-05-25 06:49:00,48.9,42.7,30.26,East,90,0.0,2.2,79,0.00,OVC,FEW,0.02,WeatherDisplay:10.37,2013-05-25 11:49:00,
2013-05-25 06:55:00,49.1,42.5,30.27,NE,45,0.0,2.3,78,0.00,OVC,FEW,0.02,WeatherDisplay:10.37,2013-05-25 11:55:00,
2013-05-25 07:01:00,48.9,42.4,30.27,SW,225,0.0,2.3,78,0.00,OVC,FEW,0.02,WeatherDisplay:10.37,2013-05-25 12:01:00,
2013-05-25 07:06:00,49.1,42.2,30.27,SW,225,0.0,1.2,77,0.00,OVC,FEW,0.02,WeatherDisplay:10.37,2013-05-25 12:06:00,
2013-05-25 07:12:00,49.3,42.0,30.28,SE,135,0.0,1.2,76,0.00,OVC,FEW,0.02,WeatherDisplay:10.37,2013-05-25 12:12:00,
2013-05-25 07:17:00,49.6,42.4,30.28,East,90,0.0,2.2,76,0.00,OVC,FEW,0.02,WeatherDisplay:10.37,2013-05-25 12:17:00,
2013-05-25 07:23:00,49.8,42.6,30.28,East,90,0.7,2.2,76,0.00,OVC,FEW,0.02,WeatherDisplay:10.37,2013-05-25 12:23:00,
2013-05-25 07:29:00,50.0,42.7,30.28,East,90,0.7,2.3,76,0.00,OVC,FEW,0.02,WeatherDisplay:10.37,2013-05-25 12:29:00,
2013-05-25 07:34:00,50.2,43.2,30.28,SW,225,0.0,1.2,77,0.00,OVC,FEW,0.02,WeatherDisplay:10.37,2013-05-25 12:34:00,
2013-05-25 07:40:00,50.2,42.6,30.27,SE,135,0.0,2.3,75,0.00,OVC,FEW,0.02,WeatherDisplay:10.37,2013-05-25 12:40:00,
2013-05-25 07:45:00,50.2,42.2,30.27,SE,135,0.0,3.5,74,0.00,OVC,FEW,0.02,WeatherDisplay:10.37,2013-05-25 12:45:00,
2013-05-25 07:51:00,50.4,41.3,30.27,NW,315,0.7,3.5,71,0.00,OVC,FEW,0.02,WeatherDisplay:10.37,2013-05-25 12:51:00,
2013-05-25 07:57:00,50.4,40.9,30.28,East,90,1.6,2.3,70,0.00,OVC,FEW,0.02,WeatherDisplay:10.37,2013-05-25 12:57:00,
2013-05-25 08:02:00,50.5,40.7,30.27,East,90,0.7,2.3,69,0.00,OVC,FEW,0.02,WeatherDisplay:10.37,2013-05-25 13:02:00,
2013-05-25 08:08:00,50.7,40.9,30.27,NE,45,0.0,2.3,69,0.00,OVC,FEW,0.02,WeatherDisplay:10.37,2013-05-25 13:08:00,
2013-05-25 08:13:00,50.7,40.9,30.27,South,180,0.0,2.3,69,0.00,OVC,FEW,0.02,WeatherDisplay:10.37,2013-05-25 13:13:00,
2013-05-25 08:19:00,50.5,41.1,30.27,SE,135,0.0,3.5,70,0.00,OVC,FEW,0.02,WeatherDisplay:10.37,2013-05-25 13:19:00,
2013-05-25 08:25:00,50.4,41.3,30.27,South,180,0.0,2.3,71,0.00,OVC,FEW,0.02,WeatherDisplay:10.37,2013-05-25 13:25:00,
2013-05-25 08:30:00,50.4,41.3,30.28,East,90,0.0,3.5,71,0.00,OVC,FEW,0.02,WeatherDisplay:10.37,2013-05-25 13:30:00,
2013-05-25 08:36:00,50.4,41.7,30.27,East,90,0.0,2.3,72,0.00,OVC,FEW,0.02,WeatherDisplay:10.37,2013-05-25 13:36:00,
2013-05-25 08:41:00,50.4,42.4,30.27,SE,135,0.0,2.3,74,0.00,OVC,FEW,0.02,WeatherDisplay:10.37,2013-05-25 13:41:00,
2013-05-25 08:47:00,50.4,42.4,30.27,SE,135,0.0,3.5,74,0.00,OVC,FEW,0.02,WeatherDisplay:10.37,2013-05-25 13:47:00,
2013-05-25 08:53:00,50.2,42.2,30.28,SW,225,0.7,3.1,74,0.00,OVC,FEW,0.02,WeatherDisplay:10.37,2013-05-25 13:53:00,
2013-05-25 08:58:00,49.8,42.6,30.28,East,90,0.0,2.2,76,0.00,OVC,FEW,0.02,WeatherDisplay:10.37,2013-05-25 13:58:00,
2013-05-25 09:04:00,49.5,42.9,30.27,East,90,0.0,2.3,78,0.00,OVC,FEW,0.02,WeatherDisplay:10.37,2013-05-25 14:04:00,
2013-05-25 09:09:00,49.1,43.2,30.28,East,90,1.6,3.1,80,0.00,OVC,FEW,0.02,WeatherDisplay:10.37,2013-05-25 14:09:00,
2013-05-25 09:15:00,48.6,43.3,30.28,SE,135,0.7,3.5,82,0.00,OVC,FEW,0.02,WeatherDisplay:10.37,2013-05-25 14:15:00,
2013-05-25 09:21:00,48.2,43.3,30.28,NNE,22,0.0,1.6,83,0.00,OVC,FEW,0.02,WeatherDisplay:10.37,2013-05-25 14:21:00,
2013-05-25 09:26:00,47.8,43.2,30.28,NE,45,0.7,3.5,84,0.00,OVC,FEW,0.02,WeatherDisplay:10.37,2013-05-25 14:26:00,
2013-05-25 09:32:00,47.7,43.1,30.29,SW,225,0.0,2.3,84,0.00,OVC,FEW,0.02,WeatherDisplay:10.37,2013-05-25 14:32:00,
2013-05-25 09:37:00,47.7,43.1,30.30,East,90,0.0,1.6,84,0.00,OVC,FEW,0.02,WeatherDisplay:10.37,2013-05-25 14:37:00,
2013-05-25 09:43:00,47.5,42.9,30.30,SW,225,0.0,1.2,84,0.00,OVC,FEW,0.02,WeatherDisplay:10.37,2013-05-25 14:43:00,
2013-05-25 09:49:00,47.3,42.7,30.31,South,180,0.0,1.2,84,0.00,OVC,FEW,0.02,WeatherDisplay:10.37,2013-05-25 14:49:00,
2013-05-25 09:54:00,47.3,42.7,30.32,SW,225,0.0,1.2,84,0.00,OVC,FEW,0.02,WeatherDisplay:10.37,2013-05-25 14:54:00,
2013-05-25 10:00:00,47.3,42.7,30.32,South,180,0.0,1.2,84,0.01,RA,FEW,0.04,WeatherDisplay:10.37,2013-05-25 15:00:00,
2013-05-25 10:05:00,47.5,42.9,30.33,North,0,0.0,0.7,84,0.02,RA,FEW,0.05,WeatherDisplay:10.37,2013-05-25 15:05:00,
2013-05-25 10:11:00,47.5,42.9,30.32,North,0,0.0,0.0,84,0.04,RA,FEW,0.07,WeatherDisplay:10.37,2013-05-25 15:11:00,
2013-05-25 10:17:00,47.7,43.1,30.33,NW,315,0.0,1.2,84,0.06,RA,FEW,0.08,WeatherDisplay:10.37,2013-05-25 15:17:00,
2013-05-25 10:22:00,47.3,42.7,30.34,East,90,0.0,0.0,84,0.08,RA,FEW,0.11,WeatherDisplay:10.37,2013-05-25 15:22:00,
2013-05-25 10:28:00,47.1,42.5,30.33,SE,135,0.0,0.7,84,0.11,RA,FEW,0.13,WeatherDisplay:10.37,2013-05-25 15:28:00,
2013-05-25 10:33:00,47.1,42.5,30.34,SE,135,0.0,0.0,84,0.12,RA,FEW,0.14,WeatherDisplay:10.37,2013-05-25 15:33:00,
2013-05-25 10:39:00,47.1,42.5,30.34,SE,135,0.0,0.0,84,0.13,RA,FEW,0.15,WeatherDisplay:10.37,2013-05-25 15:39:00,
2013-05-25 10:45:00,47.1,42.5,30.34,SE,135,0.0,0.0,84,0.14,RA,FEW,0.17,WeatherDisplay:10.37,2013-05-25 15:45:00,
2013-05-25 10:50:00,47.3,42.7,30.34,NE,45,0.0,0.0,84,0.15,RA,FEW,0.18,WeatherDisplay:10.37,2013-05-25 15:50:00,
2013-05-25 10:56:00,47.3,42.7,30.33,East,90,0.0,1.2,84,0.17,RA,FEW,0.19,WeatherDisplay:10.37,2013-05-25 15:56:00,
2013-05-25 11:01:00,47.3,42.7,30.32,East,90,0.0,1.2,84,0.17,RA,FEW,0.20,WeatherDisplay:10.37,2013-05-25 16:01:00,
2013-05-25 11:07:00,47.5,42.9,30.31,East,90,0.7,2.3,84,0.15,RA,FEW,0.21,WeatherDisplay:10.37,2013-05-25 16:07:00,
2013-05-25 11:13:00,47.5,42.9,30.29,East,90,1.6,3.5,84,0.14,RA,FEW,0.21,WeatherDisplay:10.37,2013-05-25 16:13:00,
2013-05-25 11:18:00,47.7,43.1,30.27,SE,135,0.0,4.6,84,0.14,RA,FEW,0.22,WeatherDisplay:10.37,2013-05-25 16:18:00,
2013-05-25 11:24:00,47.5,42.9,30.26,North,0,1.6,2.3,84,0.13,RA,FEW,0.24,WeatherDisplay:10.37,2013-05-25 16:24:00,
2013-05-25 11:29:00,47.7,43.1,30.25,East,90,0.7,4.6,84,0.12,RA,FEW,0.25,WeatherDisplay:10.37,2013-05-25 16:29:00,
2013-05-25 11:35:00,47.7,43.1,30.25,East,90,1.6,3.5,84,0.12,RA,FEW,0.26,WeatherDisplay:10.37,2013-05-25 16:35:00,
2013-05-25 11:41:00,47.7,43.1,30.25,South,180,1.6,5.8,84,0.11,RA,FEW,0.26,WeatherDisplay:10.37,2013-05-25 16:41:00,
2013-05-25 11:46:00,47.8,43.2,30.25,South,180,1.6,4.6,84,0.09,OVC,FEW,0.26,WeatherDisplay:10.37,2013-05-25 16:46:00,
2013-05-25 11:52:00,48.0,43.4,30.24,SE,135,0.7,3.5,84,0.09,RA,FEW,0.27,WeatherDisplay:10.37,2013-05-25 16:52:00,
2013-05-25 11:57:00,48.0,43.4,30.24,West,270,0.7,3.5,84,0.09,RA,FEW,0.28,WeatherDisplay:10.37,2013-05-25 16:57:00,
2013-05-25 12:03:00,48.0,43.4,30.22,South,180,2.2,4.5,84,0.08,RA,FEW,0.28,WeatherDisplay:10.37,2013-05-25 17:03:00,
2013-05-25 12:09:00,48.2,43.6,30.23,NE,45,0.0,2.3,84,0.08,RA,FEW,0.30,WeatherDisplay:10.37,2013-05-25 17:09:00,
2013-05-25 12:14:00,48.2,43.6,30.23,South,180,0.0,3.5,84,0.08,RA,FEW,0.31,WeatherDisplay:10.37,2013-05-25 17:14:00,
2013-05-25 12:20:00,50.4,45.7,30.24,East,90,0.7,3.1,84,0.09,RA,FEW,0.32,WeatherDisplay:10.37,2013-05-25 17:20:00,
2013-05-25 12:25:00,48.6,43.9,30.22,SE,135,1.6,3.8,84,0.08,RA,FEW,0.32,WeatherDisplay:10.37,2013-05-25 17:25:00,
2013-05-25 12:31:00,48.6,43.9,30.22,SE,135,0.0,4.6,84,0.07,OVC,FEW,0.33,WeatherDisplay:10.37,2013-05-25 17:31:00,
2013-05-25 12:37:00,48.7,44.1,30.23,West,270,0.7,3.5,84,0.07,RA,FEW,0.33,WeatherDisplay:10.37,2013-05-25 17:37:00,
2013-05-25 12:42:00,49.1,44.5,30.23,South,180,0.0,2.3,84,0.07,OVC,FEW,0.33,WeatherDisplay:10.37,2013-05-25 17:42:00,
2013-05-25 12:48:00,49.5,44.8,30.24,South,180,0.7,2.3,84,0.07,OVC,FEW,0.33,WeatherDisplay:10.37,2013-05-25 17:48:00,
2013-05-25 12:53:00,50.0,45.4,30.25,SE,135,1.6,4.6,84,0.06,OVC,FEW,0.33,WeatherDisplay:10.37,2013-05-25 17:53:00,
2013-05-25 12:59:00,50.0,45.4,30.26,NW,315,0.7,2.3,84,0.05,OVC,FEW,0.33,WeatherDisplay:10.37,2013-05-25 17:59:00,
2013-05-25 13:05:00,50.4,45.7,30.28,SE,135,0.7,3.5,84,0.05,OVC,FEW,0.34,WeatherDisplay:10.37,2013-05-25 18:05:00,
2013-05-25 13:10:00,50.2,45.5,30.26,North,0,0.7,2.2,84,0.05,RA,FEW,0.34,WeatherDisplay:10.37,2013-05-25 18:10:00,
2013-05-25 13:16:00,50.0,45.4,30.22,SE,135,0.0,3.5,84,0.04,OVC,FEW,0.35,WeatherDisplay:10.37,2013-05-25 18:16:00,
2013-05-25 13:21:00,50.0,45.4,30.22,East,90,0.0,3.5,84,0.04,RA,FEW,0.35,WeatherDisplay:10.37,2013-05-25 18:21:00,
2013-05-25 13:27:00,49.6,45.0,30.21,East,90,0.7,3.5,84,0.05,RA,FEW,0.37,WeatherDisplay:10.37,2013-05-25 18:27:00,
2013-05-25 13:33:00,49.6,45.0,30.24,SW,225,0.0,2.2,84,0.04,RA,FEW,0.37,WeatherDisplay:10.37,2013-05-25 18:33:00,
2013-05-25 13:38:00,49.5,44.8,30.22,East,90,1.6,3.5,84,0.04,OVC,FEW,0.37,WeatherDisplay:10.37,2013-05-25 18:38:00,
2013-05-25 13:44:00,49.5,44.8,30.19,East,90,0.7,3.8,84,0.04,OVC,FEW,0.37,WeatherDisplay:10.37,2013-05-25 18:44:00,
2013-05-25 13:49:00,49.3,44.6,30.20,SE,135,1.6,3.1,84,0.04,OVC,FEW,0.37,WeatherDisplay:10.37,2013-05-25 18:49:00,
2013-05-25 13:55:00,49.6,45.0,30.19,East,90,1.6,3.5,84,0.04,OVC,FEW,0.37,WeatherDisplay:10.37,2013-05-25 18:55:00,
2013-05-25 14:01:00,49.8,45.2,30.20,NW,315,0.7,3.5,84,0.04,OVC,FEW,0.37,WeatherDisplay:10.37,2013-05-25 19:01:00,
2013-05-25 14:06:00,50.0,45.4,30.22,North,0,0.0,1.2,84,0.02,OVC,FEW,0.37,WeatherDisplay:10.37,2013-05-25 19:06:00,
2013-05-25 14:12:00,50.0,45.4,30.20,East,90,0.7,3.5,84,0.02,OVC,FEW,0.38,WeatherDisplay:10.37,2013-05-25 19:12:00,
2013-05-25 14:17:00,50.2,45.5,30.22,SW,225,0.7,1.6,84,0.02,RA,FEW,0.38,WeatherDisplay:10.37,2013-05-25 19:17:00,
2013-05-25 14:23:00,50.4,45.7,30.22,SE,135,0.0,2.3,84,0.02,OVC,FEW,0.38,WeatherDisplay:10.37,2013-05-25 19:23:00,
2013-05-25 14:29:00,50.5,45.9,30.21,North,0,0.0,3.5,84,0.01,OVC,FEW,0.38,WeatherDisplay:10.37,2013-05-25 19:29:00,
2013-05-25 14:34:00,50.9,46.2,30.22,North,0,0.0,2.3,84,0.01,OVC,FEW,0.38,WeatherDisplay:10.37,2013-05-25 19:34:00,
2013-05-25 14:40:00,50.9,46.2,30.23,North,0,0.0,1.2,84,0.01,OVC,FEW,0.38,WeatherDisplay:10.37,2013-05-25 19:40:00,
2013-05-25 14:45:00,50.9,46.2,30.24,NE,45,0.0,1.6,84,0.01,OVC,FEW,0.38,WeatherDisplay:10.37,2013-05-25 19:45:00,
2013-05-25 14:51:00,50.5,45.9,30.24,NW,315,0.7,2.3,84,0.01,OVC,FEW,0.38,WeatherDisplay:10.37,2013-05-25 19:51:00,
2013-05-25 14:57:00,50.5,45.9,30.24,North,0,0.0,0.0,84,0.02,RA,FEW,0.39,WeatherDisplay:10.37,2013-05-25 19:57:00,
2013-05-25 15:02:00,50.9,46.2,30.24,South,180,0.0,0.0,84,0.02,RA,FEW,0.39,WeatherDisplay:10.37,2013-05-25 20:02:00,
2013-05-25 15:08:00,50.9,46.2,30.24,NE,45,1.6,3.5,84,0.04,RA,FEW,0.40,WeatherDisplay:10.37,2013-05-25 20:08:00,
2013-05-25 15:13:00,50.9,46.2,30.24,NE,45,0.0,2.3,84,0.04,RA,FEW,0.41,WeatherDisplay:10.37,2013-05-25 20:13:00,
2013-05-25 15:19:00,51.1,46.4,30.25,NE,45,0.0,0.0,84,0.04,RA,FEW,0.41,WeatherDisplay:10.37,2013-05-25 20:19:00,
2013-05-25 15:25:00,51.1,46.4,30.25,SE,135,0.0,1.2,84,0.05,RA,FEW,0.43,WeatherDisplay:10.37,2013-05-25 20:25:00,
2013-05-25 15:30:00,51.1,46.4,30.25,East,90,0.0,1.2,84,0.06,RA,FEW,0.44,WeatherDisplay:10.37,2013-05-25 20:30:00,
2013-05-25 15:36:00,51.3,46.6,30.24,NE,45,0.7,2.2,84,0.06,RA,FEW,0.44,WeatherDisplay:10.37,2013-05-25 20:36:00,
2013-05-25 15:41:00,51.3,46.6,30.25,NE,45,0.0,1.2,84,0.06,OVC,FEW,0.44,WeatherDisplay:10.37,2013-05-25 20:41:00,
2013-05-25 15:47:00,51.3,46.6,30.24,NE,45,0.0,3.5,84,0.07,RA,FEW,0.45,WeatherDisplay:10.37,2013-05-25 20:47:00,
2013-05-25 15:53:00,51.4,46.8,30.25,SE,135,0.0,1.2,84,0.09,RA,FEW,0.47,WeatherDisplay:10.37,2013-05-25 20:53:00,
2013-05-25 15:58:00,51.4,46.8,30.24,NE,45,0.0,2.3,84,0.11,RA,FEW,0.50,WeatherDisplay:10.37,2013-05-25 20:58:00,
2013-05-25 16:04:00,51.3,46.6,30.24,East,90,0.0,1.6,84,0.13,RA,FEW,0.52,WeatherDisplay:10.37,2013-05-25 21:04:00,
2013-05-25 16:09:00,51.1,46.4,30.24,NE,45,0.0,3.5,84,0.14,RA,FEW,0.54,WeatherDisplay:10.37,2013-05-25 21:09:00,
2013-05-25 16:15:00,50.9,46.2,30.24,SE,135,0.0,2.3,84,0.14,RA,FEW,0.56,WeatherDisplay:10.37,2013-05-25 21:15:00,
2013-05-25 16:21:00,51.3,46.6,30.24,East,90,0.0,1.2,84,0.14,RA,FEW,0.57,WeatherDisplay:10.37,2013-05-25 21:21:00,
2013-05-25 16:26:00,51.1,46.4,30.24,North,0,0.0,1.2,84,0.15,RA,FEW,0.58,WeatherDisplay:10.37,2013-05-25 21:26:00,
2013-05-25 16:32:00,50.9,46.2,30.24,SE,135,0.0,1.2,84,0.14,RA,FEW,0.58,WeatherDisplay:10.37,2013-05-25 21:32:00,
2013-05-25 16:37:00,50.9,46.2,30.24,East,90,0.0,2.3,84,0.15,RA,FEW,0.59,WeatherDisplay:10.37,2013-05-25 21:37:00,
2013-05-25 16:43:00,50.9,46.2,30.24,East,90,0.7,3.5,84,0.15,RA,FEW,0.60,WeatherDisplay:10.37,2013-05-25 21:43:00,
2013-05-25 16:49:00,50.7,46.1,30.24,East,90,0.7,1.2,84,0.15,RA,FEW,0.60,WeatherDisplay:10.37,2013-05-25 21:49:00,
2013-05-25 16:54:00,50.7,46.1,30.23,NE,45,0.0,1.2,84,0.13,OVC,FEW,0.60,WeatherDisplay:10.37,2013-05-25 21:54:00,
2013-05-25 17:00:00,50.7,46.1,30.23,East,90,0.0,3.5,84,0.12,RA,FEW,0.63,WeatherDisplay:10.37,2013-05-25 22:00:00,
2013-05-25 17:05:00,50.9,46.2,30.23,NE,45,0.7,3.5,84,0.11,RA,FEW,0.63,WeatherDisplay:10.37,2013-05-25 22:05:00,
2013-05-25 17:11:00,50.9,46.2,30.22,East,90,0.7,2.3,84,0.08,OVC,FEW,0.63,WeatherDisplay:10.37,2013-05-25 22:11:00,
2013-05-25 17:17:00,51.1,46.4,30.22,East,90,1.6,3.5,84,0.08,RA,FEW,0.64,WeatherDisplay:10.37,2013-05-25 22:17:00,
2013-05-25 17:22:00,51.4,46.8,30.22,West,270,0.7,3.5,84,0.07,RA,FEW,0.64,WeatherDisplay:10.37,2013-05-25 22:22:00,
2013-05-25 17:28:00,51.6,46.9,30.22,East,90,0.7,2.3,84,0.06,OVC,FEW,0.64,WeatherDisplay:10.37,2013-05-25 22:28:00,
2013-05-25 17:33:00,51.6,46.9,30.22,NE,45,1.6,3.5,84,0.06,OVC,FEW,0.64,WeatherDisplay:10.37,2013-05-25 22:33:00,
2013-05-25 17:39:00,51.6,46.9,30.22,NE,45,1.6,3.8,84,0.05,OVC,FEW,0.64,WeatherDisplay:10.37,2013-05-25 22:39:00,
2013-05-25 17:45:00,51.4,46.8,30.22,NE,45,0.0,4.6,84,0.04,OVC,FEW,0.64,WeatherDisplay:10.37,2013-05-25 22:45:00,
2013-05-25 17:50:00,51.3,46.6,30.22,East,90,0.0,2.3,84,0.04,OVC,FEW,0.64,WeatherDisplay:10.37,2013-05-25 22:50:00,
2013-05-25 17:56:00,51.3,46.6,30.22,NE,45,0.0,0.0,84,0.02,OVC,FEW,0.64,WeatherDisplay:10.37,2013-05-25 22:56:00,
2013-05-25 18:01:00,51.1,46.4,30.22,East,90,0.7,4.6,84,0.01,OVC,FEW,0.64,WeatherDisplay:10.37,2013-05-25 23:01:00,
2013-05-25 18:07:00,51.1,46.4,30.21,East,90,1.6,4.6,84,0.01,OVC,FEW,0.64,WeatherDisplay:10.37,2013-05-25 23:07:00,
2013-05-25 18:13:00,50.9,46.2,30.22,NE,45,0.7,2.3,84,0.01,OVC,FEW,0.64,WeatherDisplay:10.37,2013-05-25 23:13:00,
2013-05-25 18:18:00,50.9,46.2,30.21,East,90,0.0,3.5,84,0.00,OVC,FEW,0.64,WeatherDisplay:10.37,2013-05-25 23:18:00,
2013-05-25 18:24:00,51.1,46.4,30.21,East,90,0.7,2.3,84,0.00,OVC,FEW,0.64,WeatherDisplay:10.37,2013-05-25 23:24:00,
2013-05-25 18:29:00,51.1,46.4,30.21,NE,45,1.6,3.5,84,0.00,OVC,FEW,0.64,WeatherDisplay:10.37,2013-05-25 23:29:00,
2013-05-25 18:35:00,46.2,41.7,30.21,SE,135,0.7,3.5,84,0.00,OVC,FEW,0.64,WeatherDisplay:10.37,2013-05-25 23:35:00,
2013-05-25 18:41:00,50.9,46.2,30.21,NE,45,2.2,4.5,84,0.01,RA,FEW,0.65,WeatherDisplay:10.37,2013-05-25 23:41:00,
2013-05-25 18:46:00,50.9,46.2,30.19,East,90,1.6,3.8,84,0.01,RA,FEW,0.65,WeatherDisplay:10.37,2013-05-25 23:46:00,
2013-05-25 18:52:00,50.7,46.1,30.19,SE,135,1.6,8.1,84,0.01,OVC,FEW,0.65,WeatherDisplay:10.37,2013-05-25 23:52:00,
2013-05-25 18:57:00,50.5,45.9,30.19,East,90,1.6,3.5,84,0.01,OVC,FEW,0.65,WeatherDisplay:10.37,2013-05-25 23:57:00,
2013-05-25 19:03:00,50.7,46.1,30.19,South,180,1.6,4.6,84,0.01,OVC,FEW,0.65,WeatherDisplay:10.37,2013-05-26 00:03:00,
2013-05-25 19:09:00,50.7,46.1,30.18,East,90,1.6,3.5,84,0.01,OVC,FEW,0.65,WeatherDisplay:10.37,2013-05-26 00:09:00,
2013-05-25 19:14:00,50.7,46.1,30.19,East,90,1.6,5.8,84,0.01,OVC,FEW,0.65,WeatherDisplay:10.37,2013-05-26 00:14:00,
2013-05-25 19:20:00,50.7,46.1,30.19,ENE,68,1.6,3.5,84,0.01,OVC,FEW,0.65,WeatherDisplay:10.37,2013-05-26 00:20:00,
2013-05-25 19:25:00,50.7,46.1,30.19,SE,135,0.7,3.5,84,0.01,OVC,FEW,0.65,WeatherDisplay:10.37,2013-05-26 00:25:00,
2013-05-25 19:31:00,50.9,46.2,30.19,East,90,1.6,5.8,84,0.01,OVC,FEW,0.65,WeatherDisplay:10.37,2013-05-26 00:31:00,
2013-05-25 19:37:00,50.5,45.9,30.19,East,90,1.6,3.5,84,0.01,OVC,FEW,0.65,WeatherDisplay:10.37,2013-05-26 00:37:00,
2013-05-25 19:42:00,50.4,45.7,30.19,NE,45,0.7,2.3,84,0.00,OVC,FEW,0.65,WeatherDisplay:10.37,2013-05-26 00:42:00,
2013-05-25 19:48:00,50.5,45.9,30.19,East,90,1.6,3.5,84,0.00,OVC,FEW,0.65,WeatherDisplay:10.37,2013-05-26 00:48:00,
2013-05-25 19:53:00,50.5,45.9,30.19,NE,45,0.0,4.6,84,0.00,OVC,FEW,0.65,WeatherDisplay:10.37,2013-05-26 00:53:00,
2013-05-25 19:59:00,50.4,45.7,30.19,SE,135,0.0,3.5,84,0.00,OVC,FEW,0.65,WeatherDisplay:10.37,2013-05-26 00:59:00,
2013-05-25 20:05:00,50.4,45.7,30.19,SE,135,0.0,3.5,84,0.00,OVC,FEW,0.65,WeatherDisplay:10.37,2013-05-26 01:05:00,
2013-05-25 20:10:00,50.2,45.5,30.20,SE,135,0.0,3.5,84,0.00,OVC,FEW,0.65,WeatherDisplay:10.37,2013-05-26 01:10:00,
2013-05-25 20:16:00,50.2,45.5,30.19,SE,135,1.6,3.5,84,0.00,OVC,FEW,0.65,WeatherDisplay:10.37,2013-05-26 01:16:00,
2013-05-25 20:21:00,50.4,45.7,30.20,East,90,0.0,1.2,84,0.00,OVC,FEW,0.65,WeatherDisplay:10.37,2013-05-26 01:21:00,
2013-05-25 20:27:00,50.2,45.5,30.20,SE,135,0.7,2.3,84,0.00,OVC,FEW,0.65,WeatherDisplay:10.37,2013-05-26 01:27:00,
2013-05-25 20:33:00,50.2,45.5,30.19,East,90,0.7,3.5,84,0.00,OVC,FEW,0.65,WeatherDisplay:10.37,2013-05-26 01:33:00,
2013-05-25 20:38:00,50.2,45.5,30.19,ENE,68,1.6,3.5,84,0.00,OVC,FEW,0.65,WeatherDisplay:10.37,2013-05-26 01:38:00,
2013-05-25 20:44:00,50.2,45.5,30.20,SE,135,0.7,3.5,84,0.00,OVC,FEW,0.65,WeatherDisplay:10.37,2013-05-26 01:44:00,
2013-05-25 20:49:00,50.2,45.5,30.19,East,90,1.6,3.5,84,0.00,OVC,FEW,0.65,WeatherDisplay:10.37,2013-05-26 01:49:00,
2013-05-25 20:55:00,50.4,45.7,30.20,East,90,0.7,3.5,84,0.00,OVC,FEW,0.65,WeatherDisplay:10.37,2013-05-26 01:55:00,
2013-05-25 21:01:00,50.2,45.5,30.20,East,90,0.7,3.5,84,0.00,OVC,FEW,0.65,WeatherDisplay:10.37,2013-05-26 02:01:00,
2013-05-25 21:06:00,50.4,45.7,30.20,SSE,158,1.6,3.5,84,0.00,OVC,FEW,0.65,WeatherDisplay:10.37,2013-05-26 02:06:00,
2013-05-25 21:12:00,50.2,45.5,30.20,East,90,1.6,4.5,84,0.00,OVC,FEW,0.65,WeatherDisplay:10.37,2013-05-26 02:12:00,
2013-05-25 21:17:00,50.4,45.7,30.20,East,90,0.7,3.5,84,0.00,OVC,FEW,0.65,WeatherDisplay:10.37,2013-05-26 02:17:00,
2013-05-25 21:23:00,50.2,45.5,30.20,East,90,0.7,2.3,84,0.00,OVC,FEW,0.65,WeatherDisplay:10.37,2013-05-26 02:23:00,
2013-05-25 21:29:00,50.4,45.7,30.20,East,90,0.0,2.3,84,0.00,OVC,FEW,0.65,WeatherDisplay:10.37,2013-05-26 02:29:00,
2013-05-25 21:34:00,50.4,45.7,30.20,NE,45,0.7,3.1,84,0.00,OVC,FEW,0.65,WeatherDisplay:10.37,2013-05-26 02:34:00,
2013-05-25 21:40:00,50.4,45.7,30.20,East,90,0.7,3.5,84,0.00,OVC,FEW,0.65,WeatherDisplay:10.37,2013-05-26 02:40:00,
2013-05-25 21:45:00,50.5,45.9,30.20,NE,45,1.6,3.5,84,0.00,OVC,FEW,0.65,WeatherDisplay:10.37,2013-05-26 02:45:00,
2013-05-25 21:51:00,50.5,45.9,30.20,SE,135,1.6,4.6,84,0.00,OVC,FEW,0.65,WeatherDisplay:10.37,2013-05-26 02:51:00,
2013-05-25 21:57:00,50.5,45.9,30.20,East,90,0.0,3.5,84,0.00,OVC,FEW,0.65,WeatherDisplay:10.37,2013-05-26 02:57:00,
2013-05-25 22:02:00,50.5,45.9,30.19,NE,45,0.7,2.3,84,0.00,OVC,FEW,0.65,WeatherDisplay:10.37,2013-05-26 03:02:00,
2013-05-25 22:08:00,50.7,46.1,30.20,East,90,1.6,3.5,84,0.00,OVC,FEW,0.65,WeatherDisplay:10.37,2013-05-26 03:08:00,
2013-05-25 22:13:00,50.7,46.1,30.20,NE,45,0.7,3.5,84,0.00,OVC,FEW,0.65,WeatherDisplay:10.37,2013-05-26 03:13:00,
2013-05-25 22:19:00,50.7,46.1,30.20,East,90,0.7,4.6,84,0.00,OVC,FEW,0.65,WeatherDisplay:10.37,2013-05-26 03:19:00,
2013-05-25 22:25:00,50.7,46.1,30.20,East,90,0.7,3.5,84,0.00,OVC,FEW,0.65,WeatherDisplay:10.37,2013-05-26 03:25:00,
2013-05-25 22:30:00,50.7,46.1,30.20,East,90,0.7,2.3,84,0.00,OVC,FEW,0.65,WeatherDisplay:10.37,2013-05-26 03:30:00,
2013-05-25 22:36:00,50.7,46.1,30.20,East,90,1.6,2.3,84,0.00,OVC,FEW,0.65,WeatherDisplay:10.37,2013-05-26 03:36:00,
2013-05-25 22:41:00,50.5,45.9,30.20,East,90,0.7,3.5,84,0.00,OVC,FEW,0.65,WeatherDisplay:10.37,2013-05-26 03:41:00,
2013-05-25 22:47:00,50.4,45.7,30.20,East,90,0.0,2.3,84,0.00,OVC,FEW,0.65,WeatherDisplay:10.37,2013-05-26 03:47:00,
2013-05-25 22:53:00,50.4,45.7,30.20,South,180,1.6,3.8,84,0.00,OVC,FEW,0.65,WeatherDisplay:10.37,2013-05-26 03:53:00,
2013-05-25 22:58:00,50.2,45.5,30.20,NE,45,0.0,2.3,84,0.00,OVC,FEW,0.65,WeatherDisplay:10.37,2013-05-26 03:58:00,
2013-05-25 23:01:00,50.2,45.5,30.20,North,0,0.7,3.5,84,0.00,OVC,FEW,0.65,WeatherDisplay:10.37,2013-05-26 04:01:00,
2013-05-25 23:02:00,50.2,45.5,30.20,NE,45,0.0,3.5,84,0.00,OVC,FEW,0.65,WeatherDisplay:10.37,2013-05-26 04:02:00,
2013-05-25 23:03:00,50.2,45.5,30.20,NE,45,0.0,3.5,84,0.00,OVC,FEW,0.65,WeatherDisplay:10.37,2013-05-26 04:03:00,
2013-05-25 23:09:00,50.0,45.4,30.20,South,180,0.7,2.3,84,0.00,OVC,FEW,0.65,WeatherDisplay:10.37,2013-05-26 04:09:00,
2013-05-25 23:14:00,50.0,45.4,30.20,East,90,0.7,3.5,84,0.00,OVC,FEW,0.65,WeatherDisplay:10.37,2013-05-26 04:14:00,
2013-05-25 23:20:00,50.0,45.4,30.20,NE,45,0.0,1.2,84,0.00,OVC,FEW,0.65,WeatherDisplay:10.37,2013-05-26 04:20:00,
2013-05-25 23:25:00,50.2,45.5,30.20,East,90,0.7,2.3,84,0.00,OVC,FEW,0.65,WeatherDisplay:10.37,2013-05-26 04:25:00,
2013-05-25 23:31:00,50.0,45.4,30.20,NE,45,0.0,3.5,84,0.00,OVC,FEW,0.65,WeatherDisplay:10.37,2013-05-26 04:31:00,
2013-05-25 23:37:00,50.2,45.5,30.20,NE,45,0.7,3.5,84,0.00,OVC,FEW,0.65,WeatherDisplay:10.37,2013-05-26 04:37:00,
2013-05-25 23:42:00,50.2,45.5,30.20,North,0,0.7,2.3,84,0.00,OVC,FEW,0.65,WeatherDisplay:10.37,2013-05-26 04:42:00,
2013-05-25 23:48:00,50.2,45.5,30.20,East,90,0.7,2.3,84,0.00,OVC,FEW,0.65,WeatherDisplay:10.37,2013-05-26 04:48:00,
2013-05-25 23:53:00,50.2,45.5,30.19,NE,45,0.0,3.5,84,0.00,OVC,FEW,0.65,WeatherDisplay:10.37,2013-05-26 04:53:00,
2013-05-25 23:59:00,50.2,45.5,30.20,East,90,0.0,2.3,84,0.00,OVC,FEW,0.65,WeatherDisplay:10.37,2013-05-26 04:59:00,